sensor_id;sensor_type;location;lat;lon;timestamp;P1;durP1;ratioP1;P2;durP2;ratioP2
73940;SDS011;62294;48.554;10.202;2023-07-29T00:00:00;5.35;;;2.03;;
73940;SDS011;62294;48.554;10.202;2023-07-29T00:02:26;4.43;;;2.33;;
73940;SDS011;62294;48.554;10.202;2023-07-29T00:04:55;6.15;;;2.22;;
73940;SDS011;62294;48.554;10.202;2023-07-29T00:07:22;3.78;;;2.00;;
73940;SDS011;62294;48.554;10.202;2023-07-29T00:09:49;7.00;;;2.15;;
73940;SDS011;62294;48.554;10.202;2023-07-29T00:12:15;4.65;;;2.53;;
73940;SDS011;62294;48.554;10.202;2023-07-29T00:14:41;3.58;;;2.28;;
73940;SDS011;62294;48.554;10.202;2023-07-29T00:17:08;5.43;;;2.42;;
73940;SDS011;62294;48.554;10.202;2023-07-29T00:19:35;3.03;;;1.92;;
73940;SDS011;62294;48.554;10.202;2023-07-29T00:22:01;4.45;;;2.35;;
73940;SDS011;62294;48.554;10.202;2023-07-29T00:24:28;4.40;;;2.20;;
73940;SDS011;62294;48.554;10.202;2023-07-29T00:26:54;4.85;;;2.60;;
73940;SDS011;62294;48.554;10.202;2023-07-29T00:29:21;4.00;;;2.55;;
73940;SDS011;62294;48.554;10.202;2023-07-29T00:31:47;6.03;;;2.42;;
73940;SDS011;62294;48.554;10.202;2023-07-29T00:34:14;7.13;;;2.70;;
73940;SDS011;62294;48.554;10.202;2023-07-29T00:36:45;5.63;;;2.80;;
73940;SDS011;62294;48.554;10.202;2023-07-29T00:39:12;6.60;;;2.83;;
73940;SDS011;62294;48.554;10.202;2023-07-29T00:41:39;8.18;;;2.72;;
73940;SDS011;62294;48.554;10.202;2023-07-29T00:44:06;8.38;;;2.55;;
73940;SDS011;62294;48.554;10.202;2023-07-29T00:46:33;6.28;;;2.83;;
73940;SDS011;62294;48.554;10.202;2023-07-29T00:49:03;7.93;;;2.92;;
73940;SDS011;62294;48.554;10.202;2023-07-29T00:51:30;5.47;;;2.60;;
73940;SDS011;62294;48.554;10.202;2023-07-29T00:53:56;5.80;;;2.85;;
73940;SDS011;62294;48.554;10.202;2023-07-29T00:56:23;8.20;;;3.30;;
73940;SDS011;62294;48.554;10.202;2023-07-29T00:58:49;9.68;;;2.97;;
73940;SDS011;62294;48.554;10.202;2023-07-29T01:01:17;6.72;;;3.28;;
73940;SDS011;62294;48.554;10.202;2023-07-29T01:03:44;5.25;;;3.42;;
73940;SDS011;62294;48.554;10.202;2023-07-29T01:06:13;9.05;;;3.70;;
73940;SDS011;62294;48.554;10.202;2023-07-29T01:11:52;8.50;;;3.40;;
73940;SDS011;62294;48.554;10.202;2023-07-29T01:17:07;8.27;;;3.70;;
73940;SDS011;62294;48.554;10.202;2023-07-29T01:19:42;5.72;;;3.33;;
73940;SDS011;62294;48.554;10.202;2023-07-29T01:22:25;5.80;;;3.28;;
73940;SDS011;62294;48.554;10.202;2023-07-29T01:24:53;11.55;;;3.72;;
73940;SDS011;62294;48.554;10.202;2023-07-29T01:27:19;14.52;;;5.07;;
73940;SDS011;62294;48.554;10.202;2023-07-29T01:29:45;9.40;;;3.90;;
73940;SDS011;62294;48.554;10.202;2023-07-29T01:32:17;10.70;;;3.90;;
73940;SDS011;62294;48.554;10.202;2023-07-29T01:34:56;10.68;;;4.00;;
73940;SDS011;62294;48.554;10.202;2023-07-29T01:37:48;10.75;;;4.15;;
73940;SDS011;62294;48.554;10.202;2023-07-29T01:40:17;8.35;;;4.32;;
73940;SDS011;62294;48.554;10.202;2023-07-29T01:42:44;7.55;;;4.18;;
73940;SDS011;62294;48.554;10.202;2023-07-29T01:45:12;15.25;;;4.45;;
73940;SDS011;62294;48.554;10.202;2023-07-29T01:47:39;8.35;;;4.25;;
73940;SDS011;62294;48.554;10.202;2023-07-29T01:50:07;13.07;;;4.47;;
73940;SDS011;62294;48.554;10.202;2023-07-29T01:52:35;10.65;;;4.35;;
73940;SDS011;62294;48.554;10.202;2023-07-29T01:55:02;12.77;;;3.90;;
73940;SDS011;62294;48.554;10.202;2023-07-29T01:57:28;10.85;;;3.85;;
73940;SDS011;62294;48.554;10.202;2023-07-29T01:59:55;10.52;;;4.00;;
73940;SDS011;62294;48.554;10.202;2023-07-29T02:02:22;10.65;;;4.40;;
73940;SDS011;62294;48.554;10.202;2023-07-29T02:04:48;9.32;;;5.05;;
73940;SDS011;62294;48.554;10.202;2023-07-29T02:07:18;12.05;;;5.43;;
73940;SDS011;62294;48.554;10.202;2023-07-29T02:09:45;15.23;;;6.45;;
73940;SDS011;62294;48.554;10.202;2023-07-29T02:12:12;15.70;;;6.35;;
73940;SDS011;62294;48.554;10.202;2023-07-29T02:14:38;17.67;;;7.63;;
73940;SDS011;62294;48.554;10.202;2023-07-29T02:17:05;19.75;;;8.68;;
73940;SDS011;62294;48.554;10.202;2023-07-29T02:19:33;21.85;;;8.93;;
73940;SDS011;62294;48.554;10.202;2023-07-29T02:21:59;22.52;;;10.20;;
73940;SDS011;62294;48.554;10.202;2023-07-29T02:24:25;26.42;;;11.63;;
73940;SDS011;62294;48.554;10.202;2023-07-29T02:26:52;27.58;;;11.27;;
73940;SDS011;62294;48.554;10.202;2023-07-29T02:29:18;29.25;;;11.73;;
73940;SDS011;62294;48.554;10.202;2023-07-29T02:31:45;34.47;;;11.90;;
73940;SDS011;62294;48.554;10.202;2023-07-29T02:34:12;44.45;;;14.27;;
73940;SDS011;62294;48.554;10.202;2023-07-29T02:36:38;38.88;;;12.70;;
73940;SDS011;62294;48.554;10.202;2023-07-29T02:39:05;41.78;;;13.00;;
73940;SDS011;62294;48.554;10.202;2023-07-29T02:41:32;22.65;;;9.50;;
73940;SDS011;62294;48.554;10.202;2023-07-29T02:43:59;30.90;;;11.63;;
73940;SDS011;62294;48.554;10.202;2023-07-29T02:46:25;23.08;;;9.40;;
73940;SDS011;62294;48.554;10.202;2023-07-29T02:48:51;22.13;;;9.45;;
73940;SDS011;62294;48.554;10.202;2023-07-29T02:51:18;36.25;;;10.60;;
73940;SDS011;62294;48.554;10.202;2023-07-29T02:53:45;24.55;;;9.60;;
73940;SDS011;62294;48.554;10.202;2023-07-29T02:56:11;27.17;;;10.52;;
73940;SDS011;62294;48.554;10.202;2023-07-29T02:58:38;29.13;;;9.68;;
73940;SDS011;62294;48.554;10.202;2023-07-29T03:01:05;26.25;;;9.80;;
73940;SDS011;62294;48.554;10.202;2023-07-29T03:03:32;21.95;;;9.02;;
73940;SDS011;62294;48.554;10.202;2023-07-29T03:06:01;35.97;;;10.73;;
73940;SDS011;62294;48.554;10.202;2023-07-29T03:08:29;22.63;;;10.38;;
73940;SDS011;62294;48.554;10.202;2023-07-29T03:10:56;17.38;;;8.40;;
73940;SDS011;62294;48.554;10.202;2023-07-29T03:13:23;18.13;;;8.70;;
73940;SDS011;62294;48.554;10.202;2023-07-29T03:15:50;19.23;;;8.35;;
73940;SDS011;62294;48.554;10.202;2023-07-29T03:18:17;15.75;;;8.35;;
73940;SDS011;62294;48.554;10.202;2023-07-29T03:20:44;12.48;;;7.03;;
73940;SDS011;62294;48.554;10.202;2023-07-29T03:23:11;15.38;;;7.80;;
73940;SDS011;62294;48.554;10.202;2023-07-29T03:25:37;15.07;;;8.20;;
73940;SDS011;62294;48.554;10.202;2023-07-29T03:28:04;14.57;;;6.70;;
73940;SDS011;62294;48.554;10.202;2023-07-29T03:30:30;14.68;;;6.93;;
73940;SDS011;62294;48.554;10.202;2023-07-29T03:32:56;22.25;;;8.00;;
73940;SDS011;62294;48.554;10.202;2023-07-29T03:35:24;22.77;;;9.15;;
73940;SDS011;62294;48.554;10.202;2023-07-29T03:37:50;18.70;;;8.23;;
73940;SDS011;62294;48.554;10.202;2023-07-29T03:40:16;23.52;;;8.75;;
73940;SDS011;62294;48.554;10.202;2023-07-29T03:42:44;23.63;;;7.88;;
73940;SDS011;62294;48.554;10.202;2023-07-29T03:45:11;31.60;;;10.07;;
73940;SDS011;62294;48.554;10.202;2023-07-29T03:47:37;16.48;;;8.73;;
73940;SDS011;62294;48.554;10.202;2023-07-29T03:50:04;17.75;;;8.60;;
73940;SDS011;62294;48.554;10.202;2023-07-29T03:52:31;23.38;;;8.98;;
73940;SDS011;62294;48.554;10.202;2023-07-29T03:54:57;13.35;;;7.72;;
73940;SDS011;62294;48.554;10.202;2023-07-29T03:57:24;25.52;;;9.63;;
73940;SDS011;62294;48.554;10.202;2023-07-29T03:59:51;13.88;;;7.72;;
73940;SDS011;62294;48.554;10.202;2023-07-29T04:02:17;16.80;;;8.68;;
73940;SDS011;62294;48.554;10.202;2023-07-29T04:04:44;16.38;;;9.05;;
73940;SDS011;62294;48.554;10.202;2023-07-29T04:07:13;19.08;;;8.38;;
73940;SDS011;62294;48.554;10.202;2023-07-29T04:09:41;17.25;;;9.00;;
73940;SDS011;62294;48.554;10.202;2023-07-29T04:12:09;17.05;;;8.48;;
73940;SDS011;62294;48.554;10.202;2023-07-29T04:14:36;16.85;;;8.45;;
73940;SDS011;62294;48.554;10.202;2023-07-29T04:17:03;18.13;;;8.60;;
73940;SDS011;62294;48.554;10.202;2023-07-29T04:19:30;18.50;;;9.13;;
73940;SDS011;62294;48.554;10.202;2023-07-29T04:21:56;16.95;;;7.97;;
73940;SDS011;62294;48.554;10.202;2023-07-29T04:24:23;12.52;;;7.85;;
73940;SDS011;62294;48.554;10.202;2023-07-29T04:26:49;15.35;;;8.13;;
73940;SDS011;62294;48.554;10.202;2023-07-29T04:29:16;19.42;;;8.88;;
73940;SDS011;62294;48.554;10.202;2023-07-29T04:31:43;16.70;;;8.00;;
73940;SDS011;62294;48.554;10.202;2023-07-29T04:34:10;13.85;;;7.50;;
73940;SDS011;62294;48.554;10.202;2023-07-29T04:36:36;17.23;;;7.15;;
73940;SDS011;62294;48.554;10.202;2023-07-29T04:39:04;12.00;;;7.53;;
73940;SDS011;62294;48.554;10.202;2023-07-29T04:41:30;15.23;;;7.18;;
73940;SDS011;62294;48.554;10.202;2023-07-29T04:43:57;13.63;;;6.15;;
73940;SDS011;62294;48.554;10.202;2023-07-29T04:46:23;12.90;;;6.95;;
73940;SDS011;62294;48.554;10.202;2023-07-29T04:48:50;11.73;;;7.18;;
73940;SDS011;62294;48.554;10.202;2023-07-29T04:51:17;10.20;;;6.63;;
73940;SDS011;62294;48.554;10.202;2023-07-29T04:53:43;12.00;;;6.95;;
73940;SDS011;62294;48.554;10.202;2023-07-29T04:56:10;10.60;;;6.70;;
73940;SDS011;62294;48.554;10.202;2023-07-29T04:58:36;10.55;;;6.90;;
73940;SDS011;62294;48.554;10.202;2023-07-29T05:01:03;11.10;;;7.03;;
73940;SDS011;62294;48.554;10.202;2023-07-29T05:03:30;14.13;;;6.32;;
73940;SDS011;62294;48.554;10.202;2023-07-29T05:05:57;13.52;;;7.10;;
73940;SDS011;62294;48.554;10.202;2023-07-29T05:08:25;10.63;;;6.05;;
73940;SDS011;62294;48.554;10.202;2023-07-29T05:10:52;11.50;;;6.53;;
73940;SDS011;62294;48.554;10.202;2023-07-29T05:13:19;9.20;;;6.72;;
73940;SDS011;62294;48.554;10.202;2023-07-29T05:15:47;10.43;;;6.45;;
73940;SDS011;62294;48.554;10.202;2023-07-29T05:18:15;9.48;;;6.40;;
73940;SDS011;62294;48.554;10.202;2023-07-29T05:20:42;10.25;;;6.72;;
73940;SDS011;62294;48.554;10.202;2023-07-29T05:23:09;11.07;;;6.63;;
73940;SDS011;62294;48.554;10.202;2023-07-29T05:25:35;11.20;;;6.50;;
73940;SDS011;62294;48.554;10.202;2023-07-29T05:28:02;11.73;;;6.72;;
73940;SDS011;62294;48.554;10.202;2023-07-29T05:32:59;10.75;;;6.40;;
73940;SDS011;62294;48.554;10.202;2023-07-29T05:35:26;9.57;;;6.30;;
73940;SDS011;62294;48.554;10.202;2023-07-29T05:37:53;10.98;;;6.60;;
73940;SDS011;62294;48.554;10.202;2023-07-29T05:40:20;12.85;;;6.93;;
73940;SDS011;62294;48.554;10.202;2023-07-29T05:42:46;11.30;;;7.13;;
73940;SDS011;62294;48.554;10.202;2023-07-29T05:45:14;10.07;;;6.32;;
73940;SDS011;62294;48.554;10.202;2023-07-29T05:47:41;9.65;;;6.40;;
73940;SDS011;62294;48.554;10.202;2023-07-29T05:50:08;8.73;;;5.97;;
73940;SDS011;62294;48.554;10.202;2023-07-29T05:52:35;8.90;;;5.60;;
73940;SDS011;62294;48.554;10.202;2023-07-29T05:55:01;6.93;;;5.28;;
73940;SDS011;62294;48.554;10.202;2023-07-29T05:57:28;7.20;;;5.32;;
73940;SDS011;62294;48.554;10.202;2023-07-29T05:59:55;8.82;;;5.15;;
73940;SDS011;62294;48.554;10.202;2023-07-29T06:02:21;7.30;;;5.40;;
73940;SDS011;62294;48.554;10.202;2023-07-29T06:04:47;7.20;;;5.55;;
73940;SDS011;62294;48.554;10.202;2023-07-29T06:07:14;9.15;;;5.32;;
73940;SDS011;62294;48.554;10.202;2023-07-29T06:09:40;9.18;;;5.88;;
73940;SDS011;62294;48.554;10.202;2023-07-29T06:12:07;10.05;;;5.80;;
73940;SDS011;62294;48.554;10.202;2023-07-29T06:14:34;8.85;;;5.63;;
73940;SDS011;62294;48.554;10.202;2023-07-29T06:17:00;7.95;;;4.88;;
73940;SDS011;62294;48.554;10.202;2023-07-29T06:19:27;7.43;;;4.25;;
73940;SDS011;62294;48.554;10.202;2023-07-29T06:21:55;6.43;;;5.03;;
73940;SDS011;62294;48.554;10.202;2023-07-29T06:24:22;8.55;;;4.97;;
73940;SDS011;62294;48.554;10.202;2023-07-29T06:26:48;8.73;;;6.20;;
73940;SDS011;62294;48.554;10.202;2023-07-29T06:29:15;7.10;;;4.93;;
73940;SDS011;62294;48.554;10.202;2023-07-29T06:31:41;8.95;;;5.32;;
73940;SDS011;62294;48.554;10.202;2023-07-29T06:34:08;7.75;;;5.63;;
73940;SDS011;62294;48.554;10.202;2023-07-29T06:36:35;8.13;;;5.10;;
73940;SDS011;62294;48.554;10.202;2023-07-29T06:39:01;8.00;;;5.30;;
73940;SDS011;62294;48.554;10.202;2023-07-29T06:41:28;7.68;;;5.28;;
73940;SDS011;62294;48.554;10.202;2023-07-29T06:43:55;10.65;;;7.63;;
73940;SDS011;62294;48.554;10.202;2023-07-29T06:46:21;8.82;;;7.68;;
73940;SDS011;62294;48.554;10.202;2023-07-29T06:48:48;13.15;;;11.23;;
73940;SDS011;62294;48.554;10.202;2023-07-29T06:51:14;10.95;;;8.40;;
73940;SDS011;62294;48.554;10.202;2023-07-29T06:53:41;13.20;;;9.27;;
73940;SDS011;62294;48.554;10.202;2023-07-29T06:56:08;10.90;;;8.95;;
73940;SDS011;62294;48.554;10.202;2023-07-29T06:58:34;10.38;;;8.35;;
73940;SDS011;62294;48.554;10.202;2023-07-29T07:01:01;8.15;;;6.35;;
73940;SDS011;62294;48.554;10.202;2023-07-29T07:03:29;9.00;;;6.15;;
73940;SDS011;62294;48.554;10.202;2023-07-29T07:05:56;7.15;;;5.60;;
73940;SDS011;62294;48.554;10.202;2023-07-29T07:08:22;9.05;;;4.15;;
73940;SDS011;62294;48.554;10.202;2023-07-29T07:10:49;5.50;;;3.83;;
73940;SDS011;62294;48.554;10.202;2023-07-29T07:13:15;8.35;;;4.47;;
73940;SDS011;62294;48.554;10.202;2023-07-29T07:15:42;8.10;;;3.90;;
73940;SDS011;62294;48.554;10.202;2023-07-29T07:18:08;6.85;;;4.13;;
73940;SDS011;62294;48.554;10.202;2023-07-29T07:20:35;6.88;;;3.88;;
73940;SDS011;62294;48.554;10.202;2023-07-29T07:23:03;5.70;;;3.83;;
73940;SDS011;62294;48.554;10.202;2023-07-29T07:25:31;7.10;;;4.20;;
73940;SDS011;62294;48.554;10.202;2023-07-29T07:27:58;7.30;;;4.13;;
73940;SDS011;62294;48.554;10.202;2023-07-29T07:30:24;6.28;;;3.97;;
73940;SDS011;62294;48.554;10.202;2023-07-29T07:32:51;6.68;;;4.03;;
73940;SDS011;62294;48.554;10.202;2023-07-29T07:35:17;4.72;;;3.05;;
73940;SDS011;62294;48.554;10.202;2023-07-29T07:37:45;5.82;;;2.85;;
73940;SDS011;62294;48.554;10.202;2023-07-29T07:40:12;6.43;;;3.63;;
73940;SDS011;62294;48.554;10.202;2023-07-29T07:42:38;6.10;;;3.80;;
73940;SDS011;62294;48.554;10.202;2023-07-29T07:45:05;6.40;;;3.55;;
73940;SDS011;62294;48.554;10.202;2023-07-29T07:47:31;5.15;;;3.00;;
73940;SDS011;62294;48.554;10.202;2023-07-29T07:49:58;7.68;;;3.85;;
73940;SDS011;62294;48.554;10.202;2023-07-29T07:52:25;5.10;;;2.80;;
73940;SDS011;62294;48.554;10.202;2023-07-29T07:54:55;4.45;;;2.90;;
73940;SDS011;62294;48.554;10.202;2023-07-29T07:57:21;5.60;;;3.40;;
73940;SDS011;62294;48.554;10.202;2023-07-29T07:59:48;5.97;;;3.28;;
73940;SDS011;62294;48.554;10.202;2023-07-29T08:02:15;7.30;;;3.47;;
73940;SDS011;62294;48.554;10.202;2023-07-29T08:04:41;6.53;;;2.97;;
73940;SDS011;62294;48.554;10.202;2023-07-29T08:07:08;5.53;;;2.47;;
73940;SDS011;62294;48.554;10.202;2023-07-29T08:09:35;6.47;;;2.72;;
73940;SDS011;62294;48.554;10.202;2023-07-29T08:12:01;7.60;;;3.00;;
73940;SDS011;62294;48.554;10.202;2023-07-29T08:14:28;5.57;;;3.03;;
73940;SDS011;62294;48.554;10.202;2023-07-29T08:16:54;9.25;;;4.20;;
73940;SDS011;62294;48.554;10.202;2023-07-29T08:19:21;6.53;;;2.65;;
73940;SDS011;62294;48.554;10.202;2023-07-29T08:21:48;4.90;;;3.05;;
73940;SDS011;62294;48.554;10.202;2023-07-29T08:24:14;4.38;;;2.80;;
73940;SDS011;62294;48.554;10.202;2023-07-29T08:26:41;3.95;;;2.33;;
73940;SDS011;62294;48.554;10.202;2023-07-29T08:29:07;3.40;;;2.05;;
73940;SDS011;62294;48.554;10.202;2023-07-29T08:31:34;5.18;;;2.22;;
73940;SDS011;62294;48.554;10.202;2023-07-29T08:34:01;2.55;;;1.90;;
73940;SDS011;62294;48.554;10.202;2023-07-29T08:36:27;2.95;;;1.75;;
73940;SDS011;62294;48.554;10.202;2023-07-29T08:38:54;3.22;;;1.80;;
73940;SDS011;62294;48.554;10.202;2023-07-29T08:41:31;3.40;;;1.67;;
73940;SDS011;62294;48.554;10.202;2023-07-29T08:44:10;1.65;;;1.40;;
73940;SDS011;62294;48.554;10.202;2023-07-29T08:46:43;1.98;;;1.20;;
73940;SDS011;62294;48.554;10.202;2023-07-29T08:49:11;1.98;;;1.58;;
73940;SDS011;62294;48.554;10.202;2023-07-29T08:51:43;2.13;;;1.30;;
73940;SDS011;62294;48.554;10.202;2023-07-29T08:54:11;3.45;;;1.33;;
73940;SDS011;62294;48.554;10.202;2023-07-29T08:56:38;2.45;;;1.30;;
73940;SDS011;62294;48.554;10.202;2023-07-29T08:59:07;2.05;;;1.33;;
73940;SDS011;62294;48.554;10.202;2023-07-29T09:01:34;5.30;;;2.65;;
73940;SDS011;62294;48.554;10.202;2023-07-29T09:04:01;2.65;;;1.30;;
73940;SDS011;62294;48.554;10.202;2023-07-29T09:06:28;1.83;;;1.17;;
73940;SDS011;62294;48.554;10.202;2023-07-29T09:08:54;2.60;;;1.20;;
73940;SDS011;62294;48.554;10.202;2023-07-29T09:11:23;3.40;;;1.30;;
73940;SDS011;62294;48.554;10.202;2023-07-29T09:13:51;1.85;;;1.17;;
73940;SDS011;62294;48.554;10.202;2023-07-29T09:16:20;2.05;;;1.17;;
73940;SDS011;62294;48.554;10.202;2023-07-29T09:18:47;1.73;;;1.25;;
73940;SDS011;62294;48.554;10.202;2023-07-29T09:21:17;2.05;;;1.23;;
73940;SDS011;62294;48.554;10.202;2023-07-29T09:23:44;1.15;;;1.05;;
73940;SDS011;62294;48.554;10.202;2023-07-29T09:26:11;1.33;;;1.17;;
73940;SDS011;62294;48.554;10.202;2023-07-29T09:28:38;1.23;;;1.10;;
73940;SDS011;62294;48.554;10.202;2023-07-29T09:31:06;1.55;;;0.98;;
73940;SDS011;62294;48.554;10.202;2023-07-29T09:33:33;3.33;;;1.10;;
73940;SDS011;62294;48.554;10.202;2023-07-29T09:36:08;1.35;;;1.00;;
73940;SDS011;62294;48.554;10.202;2023-07-29T09:38:38;2.05;;;1.20;;
73940;SDS011;62294;48.554;10.202;2023-07-29T09:41:05;1.20;;;1.10;;
73940;SDS011;62294;48.554;10.202;2023-07-29T09:43:32;2.40;;;1.10;;
73940;SDS011;62294;48.554;10.202;2023-07-29T09:46:03;1.20;;;1.10;;
73940;SDS011;62294;48.554;10.202;2023-07-29T09:48:35;1.85;;;1.30;;
73940;SDS011;62294;48.554;10.202;2023-07-29T09:51:12;1.90;;;1.17;;
73940;SDS011;62294;48.554;10.202;2023-07-29T09:53:43;1.92;;;1.35;;
73940;SDS011;62294;48.554;10.202;2023-07-29T09:56:13;1.90;;;1.30;;
73940;SDS011;62294;48.554;10.202;2023-07-29T09:58:42;1.17;;;1.08;;
73940;SDS011;62294;48.554;10.202;2023-07-29T10:01:12;1.90;;;1.25;;
73940;SDS011;62294;48.554;10.202;2023-07-29T10:03:39;1.20;;;1.08;;
73940;SDS011;62294;48.554;10.202;2023-07-29T10:06:07;2.38;;;1.30;;
73940;SDS011;62294;48.554;10.202;2023-07-29T10:08:33;2.65;;;1.20;;
73940;SDS011;62294;48.554;10.202;2023-07-29T10:11:06;1.98;;;1.10;;
73940;SDS011;62294;48.554;10.202;2023-07-29T10:13:34;3.53;;;1.05;;
73940;SDS011;62294;48.554;10.202;2023-07-29T10:16:02;2.22;;;1.30;;
73940;SDS011;62294;48.554;10.202;2023-07-29T10:18:30;2.45;;;1.00;;
73940;SDS011;62294;48.554;10.202;2023-07-29T10:20:59;1.98;;;1.10;;
73940;SDS011;62294;48.554;10.202;2023-07-29T10:23:27;1.38;;;1.20;;
73940;SDS011;62294;48.554;10.202;2023-07-29T10:26:03;2.28;;;1.15;;
73940;SDS011;62294;48.554;10.202;2023-07-29T10:28:32;3.95;;;1.30;;
73940;SDS011;62294;48.554;10.202;2023-07-29T10:31:00;1.15;;;0.95;;
73940;SDS011;62294;48.554;10.202;2023-07-29T10:33:29;1.67;;;1.20;;
73940;SDS011;62294;48.554;10.202;2023-07-29T10:36:00;3.17;;;1.50;;
73940;SDS011;62294;48.554;10.202;2023-07-29T10:38:28;1.60;;;0.98;;
73940;SDS011;62294;48.554;10.202;2023-07-29T10:40:55;1.60;;;1.20;;
73940;SDS011;62294;48.554;10.202;2023-07-29T10:45:52;2.78;;;1.48;;
73940;SDS011;62294;48.554;10.202;2023-07-29T10:48:40;3.30;;;1.45;;
73940;SDS011;62294;48.554;10.202;2023-07-29T10:56:41;1.38;;;1.23;;
73940;SDS011;62294;48.554;10.202;2023-07-29T11:01:39;1.77;;;1.30;;
73940;SDS011;62294;48.554;10.202;2023-07-29T11:17:42;3.85;;;1.90;;
73940;SDS011;62294;48.554;10.202;2023-07-29T11:20:13;3.60;;;1.80;;
73940;SDS011;62294;48.554;10.202;2023-07-29T11:22:40;2.50;;;1.58;;
73940;SDS011;62294;48.554;10.202;2023-07-29T11:25:08;3.65;;;1.85;;
73940;SDS011;62294;48.554;10.202;2023-07-29T11:27:36;2.67;;;1.67;;
73940;SDS011;62294;48.554;10.202;2023-07-29T11:30:05;2.78;;;1.63;;
73940;SDS011;62294;48.554;10.202;2023-07-29T11:32:34;2.88;;;1.50;;
73940;SDS011;62294;48.554;10.202;2023-07-29T11:35:05;2.80;;;1.88;;
73940;SDS011;62294;48.554;10.202;2023-07-29T11:37:37;3.83;;;1.70;;
73940;SDS011;62294;48.554;10.202;2023-07-29T11:40:05;2.75;;;1.85;;
73940;SDS011;62294;48.554;10.202;2023-07-29T11:42:33;3.25;;;1.70;;
73940;SDS011;62294;48.554;10.202;2023-07-29T11:45:01;2.30;;;1.80;;
73940;SDS011;62294;48.554;10.202;2023-07-29T11:47:30;3.03;;;1.90;;
73940;SDS011;62294;48.554;10.202;2023-07-29T11:49:59;2.78;;;1.65;;
73940;SDS011;62294;48.554;10.202;2023-07-29T11:52:29;2.03;;;1.50;;
73940;SDS011;62294;48.554;10.202;2023-07-29T11:54:58;4.82;;;1.83;;
73940;SDS011;62294;48.554;10.202;2023-07-29T11:57:26;2.42;;;1.80;;
73940;SDS011;62294;48.554;10.202;2023-07-29T11:59:53;2.42;;;1.50;;
73940;SDS011;62294;48.554;10.202;2023-07-29T12:02:19;3.45;;;2.13;;
73940;SDS011;62294;48.554;10.202;2023-07-29T12:04:47;3.90;;;2.03;;
73940;SDS011;62294;48.554;10.202;2023-07-29T12:07:16;3.17;;;2.00;;
73940;SDS011;62294;48.554;10.202;2023-07-29T12:09:43;2.40;;;1.65;;
73940;SDS011;62294;48.554;10.202;2023-07-29T12:12:09;2.35;;;1.65;;
73940;SDS011;62294;48.554;10.202;2023-07-29T12:14:37;2.00;;;1.50;;
73940;SDS011;62294;48.554;10.202;2023-07-29T12:17:04;2.45;;;1.77;;
73940;SDS011;62294;48.554;10.202;2023-07-29T12:19:32;2.97;;;1.65;;
73940;SDS011;62294;48.554;10.202;2023-07-29T12:22:01;1.92;;;1.60;;
73940;SDS011;62294;48.554;10.202;2023-07-29T12:24:30;2.20;;;1.63;;
73940;SDS011;62294;48.554;10.202;2023-07-29T12:26:57;7.22;;;1.90;;
73940;SDS011;62294;48.554;10.202;2023-07-29T12:29:24;2.65;;;1.30;;
73940;SDS011;62294;48.554;10.202;2023-07-29T12:31:58;1.80;;;1.33;;
73940;SDS011;62294;48.554;10.202;2023-07-29T12:34:26;3.88;;;1.75;;
73940;SDS011;62294;48.554;10.202;2023-07-29T12:36:55;2.13;;;1.58;;
73940;SDS011;62294;48.554;10.202;2023-07-29T12:39:23;1.90;;;1.50;;
73940;SDS011;62294;48.554;10.202;2023-07-29T12:41:54;2.17;;;1.63;;
73940;SDS011;62294;48.554;10.202;2023-07-29T12:44:22;3.67;;;1.67;;
73940;SDS011;62294;48.554;10.202;2023-07-29T12:46:49;4.15;;;1.83;;
73940;SDS011;62294;48.554;10.202;2023-07-29T12:49:17;2.03;;;1.60;;
73940;SDS011;62294;48.554;10.202;2023-07-29T12:51:43;2.65;;;1.80;;
73940;SDS011;62294;48.554;10.202;2023-07-29T12:54:10;2.35;;;1.52;;
73940;SDS011;62294;48.554;10.202;2023-07-29T12:56:37;2.22;;;1.60;;
73940;SDS011;62294;48.554;10.202;2023-07-29T12:59:04;2.70;;;1.40;;
73940;SDS011;62294;48.554;10.202;2023-07-29T13:01:31;2.65;;;1.70;;
73940;SDS011;62294;48.554;10.202;2023-07-29T13:03:58;3.42;;;1.70;;
73940;SDS011;62294;48.554;10.202;2023-07-29T13:06:25;1.65;;;1.50;;
73940;SDS011;62294;48.554;10.202;2023-07-29T13:08:51;3.05;;;1.70;;
73940;SDS011;62294;48.554;10.202;2023-07-29T13:11:18;2.38;;;1.40;;
73940;SDS011;62294;48.554;10.202;2023-07-29T13:13:45;1.98;;;1.60;;
73940;SDS011;62294;48.554;10.202;2023-07-29T13:16:12;4.35;;;1.85;;
73940;SDS011;62294;48.554;10.202;2023-07-29T13:18:40;2.33;;;1.70;;
73940;SDS011;62294;48.554;10.202;2023-07-29T13:21:07;2.75;;;1.73;;
73940;SDS011;62294;48.554;10.202;2023-07-29T13:23:33;2.95;;;1.88;;
73940;SDS011;62294;48.554;10.202;2023-07-29T13:26:00;2.67;;;1.75;;
73940;SDS011;62294;48.554;10.202;2023-07-29T13:28:27;2.40;;;1.45;;
73940;SDS011;62294;48.554;10.202;2023-07-29T13:30:54;4.40;;;1.77;;
73940;SDS011;62294;48.554;10.202;2023-07-29T13:33:21;3.78;;;1.80;;
73940;SDS011;62294;48.554;10.202;2023-07-29T13:35:47;3.28;;;1.40;;
73940;SDS011;62294;48.554;10.202;2023-07-29T13:38:14;2.40;;;1.60;;
73940;SDS011;62294;48.554;10.202;2023-07-29T13:40:41;1.80;;;1.50;;
73940;SDS011;62294;48.554;10.202;2023-07-29T13:43:07;2.33;;;1.48;;
73940;SDS011;62294;48.554;10.202;2023-07-29T13:45:34;6.18;;;1.60;;
73940;SDS011;62294;48.554;10.202;2023-07-29T13:48:01;3.92;;;1.33;;
73940;SDS011;62294;48.554;10.202;2023-07-29T13:50:27;2.78;;;1.50;;
73940;SDS011;62294;48.554;10.202;2023-07-29T13:52:54;2.75;;;1.60;;
73940;SDS011;62294;48.554;10.202;2023-07-29T13:55:21;2.53;;;1.50;;
73940;SDS011;62294;48.554;10.202;2023-07-29T13:57:47;2.28;;;1.50;;
73940;SDS011;62294;48.554;10.202;2023-07-29T14:00:14;1.30;;;1.20;;
73940;SDS011;62294;48.554;10.202;2023-07-29T14:02:41;3.28;;;1.88;;
73940;SDS011;62294;48.554;10.202;2023-07-29T14:05:09;2.97;;;1.88;;
73940;SDS011;62294;48.554;10.202;2023-07-29T14:07:36;2.03;;;1.30;;
73940;SDS011;62294;48.554;10.202;2023-07-29T14:10:02;1.75;;;1.42;;
73940;SDS011;62294;48.554;10.202;2023-07-29T14:12:29;2.30;;;1.25;;
73940;SDS011;62294;48.554;10.202;2023-07-29T14:14:56;2.97;;;1.70;;
73940;SDS011;62294;48.554;10.202;2023-07-29T14:17:22;2.05;;;1.48;;
73940;SDS011;62294;48.554;10.202;2023-07-29T14:19:48;3.33;;;1.40;;
73940;SDS011;62294;48.554;10.202;2023-07-29T14:22:15;2.78;;;1.92;;
73940;SDS011;62294;48.554;10.202;2023-07-29T14:24:42;1.90;;;1.55;;
73940;SDS011;62294;48.554;10.202;2023-07-29T14:27:08;4.28;;;2.13;;
73940;SDS011;62294;48.554;10.202;2023-07-29T14:29:35;3.40;;;1.65;;
73940;SDS011;62294;48.554;10.202;2023-07-29T14:32:01;2.40;;;1.65;;
73940;SDS011;62294;48.554;10.202;2023-07-29T14:34:28;2.45;;;1.80;;
73940;SDS011;62294;48.554;10.202;2023-07-29T14:36:56;2.75;;;1.48;;
73940;SDS011;62294;48.554;10.202;2023-07-29T14:39:22;2.20;;;1.50;;
73940;SDS011;62294;48.554;10.202;2023-07-29T14:41:48;2.22;;;1.60;;
73940;SDS011;62294;48.554;10.202;2023-07-29T14:44:15;1.98;;;1.40;;
73940;SDS011;62294;48.554;10.202;2023-07-29T14:46:42;3.92;;;2.80;;
73940;SDS011;62294;48.554;10.202;2023-07-29T14:49:08;2.83;;;1.60;;
73940;SDS011;62294;48.554;10.202;2023-07-29T14:51:35;1.88;;;1.45;;
73940;SDS011;62294;48.554;10.202;2023-07-29T14:54:02;4.07;;;1.80;;
73940;SDS011;62294;48.554;10.202;2023-07-29T14:56:29;5.60;;;2.20;;
73940;SDS011;62294;48.554;10.202;2023-07-29T14:58:55;2.10;;;1.42;;
73940;SDS011;62294;48.554;10.202;2023-07-29T15:01:21;2.60;;;1.63;;
73940;SDS011;62294;48.554;10.202;2023-07-29T15:03:49;2.97;;;1.95;;